Time;durP1;ratioP1;P1;durP2;ratioP2;P2;SDS_P1;SDS_P2;PMS_P1;PMS_P2;Temp;Humidity;BMP_temperature;BMP_pressure;BME280_temperature;BME280_humidity;BME280_pressure;Samples;Min_cycle;Max_cycle;Signal;HPM_P1;HPM_P2
2022/07/25 00:03:47;;;;;;;11.35;8.18;;;;;20.40;96390.00;;;;8348327;28;20986;-66
2022/07/25 00:07:51;;;;;;;9.55;8.32;;;;;20.30;96384.00;;;;8349503;28;20232;-66
2022/07/25 00:11:54;;;;;;;12.10;8.57;;;;;20.30;96384.00;;;;8348646;28;20318;-65
2022/07/25 00:15:59;;;;;;;9.63;8.60;;;;;20.30;96386.00;;;;8349254;28;20223;-65
2022/07/25 00:20:02;;;;;;;11.43;9.30;;;;;20.20;96377.00;;;;8346000;28;20748;-67
2022/07/25 00:24:06;;;;;;;14.63;9.35;;;;;20.10;96375.00;;;;8348512;28;20575;-65
2022/07/25 00:28:10;;;;;;;10.13;8.80;;;;;20.10;96368.00;;;;8349478;28;20224;-69
2022/07/25 00:32:15;;;;;;;14.18;8.85;;;;;20.00;96367.00;;;;8348756;28;20586;-65
2022/07/25 00:36:18;;;;;;;14.25;9.45;;;;;20.10;96362.00;;;;8347466;28;20640;-67
2022/07/25 00:40:21;;;;;;;11.98;9.02;;;;;20.30;96354.00;;;;8348502;28;20590;-66
2022/07/25 00:44:25;;;;;;;13.77;9.30;;;;;20.50;96350.00;;;;8347891;28;20236;-68
2022/07/25 00:48:31;;;;;;;11.43;8.57;;;;;20.70;96347.00;;;;8344639;28;20235;-70
2022/07/25 00:52:34;;;;;;;10.90;8.30;;;;;20.90;96338.00;;;;8345108;28;20256;-68
2022/07/25 00:56:38;;;;;;;9.32;7.70;;;;;21.10;96345.00;;;;8351005;28;20307;-66
2022/07/25 01:00:41;;;;;;;10.20;8.65;;;;;21.30;96340.00;;;;8347769;28;20225;-66
2022/07/25 01:04:46;;;;;;;12.43;8.57;;;;;21.40;96342.00;;;;8347265;28;20233;-65
2022/07/25 01:08:49;;;;;;;11.32;8.30;;;;;21.50;96328.00;;;;8343461;28;20219;-65
2022/07/25 01:12:54;;;;;;;9.88;8.25;;;;;21.60;96336.00;;;;8348221;28;20578;-65
2022/07/25 01:16:57;;;;;;;10.63;8.63;;;;;21.70;96340.00;;;;8348450;28;20255;-67
2022/07/25 01:21:01;;;;;;;10.32;7.97;;;;;21.70;96336.00;;;;8345916;28;20234;-67
2022/07/25 01:25:05;;;;;;;9.57;8.05;;;;;21.70;96334.00;;;;8340385;28;20391;-66
2022/07/25 01:29:08;;;;;;;12.15;8.57;;;;;21.70;96336.00;;;;8348355;28;20216;-68
2022/07/25 01:33:15;;;;;;;13.02;8.48;;;;;21.70;96328.00;;;;8346576;28;20228;-69
2022/07/25 01:37:20;;;;;;;10.95;8.48;;;;;21.70;96328.00;;;;8346164;28;20229;-67
2022/07/25 01:41:23;;;;;;;12.38;9.23;;;;;21.70;96325.00;;;;8345984;28;20220;-67
2022/07/25 01:45:26;;;;;;;9.57;8.60;;;;;21.60;96321.00;;;;8344729;28;21122;-73
2022/07/25 01:49:30;;;;;;;10.27;8.57;;;;;21.60;96325.00;;;;8345866;28;20270;-68
2022/07/25 01:53:34;;;;;;;11.57;9.35;;;;;21.50;96316.00;;;;8345986;28;20694;-67
2022/07/25 01:57:38;;;;;;;15.18;9.38;;;;;21.50;96317.00;;;;8345794;28;20315;-66
2022/07/25 02:01:42;;;;;;;10.27;8.80;;;;;21.40;96316.00;;;;8346701;28;20232;-67
2022/07/25 02:05:45;;;;;;;9.02;8.10;;;;;21.30;96310.00;;;;8341756;28;20327;-69
2022/07/25 02:09:49;;;;;;;11.32;9.60;;;;;21.30;96310.00;;;;8346144;28;20307;-70
2022/07/25 02:13:58;;;;;;;10.68;8.88;;;;;21.20;96310.00;;;;8345789;28;20224;-66
2022/07/25 02:18:02;;;;;;;21.15;8.93;;;;;21.20;96295.00;;;;8343238;28;20312;-70
2022/07/25 02:22:05;;;;;;;12.18;9.18;;;;;21.10;96291.00;;;;8350943;28;20236;-67
2022/07/25 02:26:14;;;;;;;11.82;9.00;;;;;21.10;96281.00;;;;8342313;28;20262;-66
2022/07/25 02:30:18;;;;;;;9.93;8.93;;;;;21.10;96275.00;;;;8351154;28;20316;-67
2022/07/25 02:34:21;;;;;;;13.95;8.82;;;;;21.10;96275.00;;;;8350458;28;20232;-66
2022/07/25 02:38:25;;;;;;;11.63;8.95;;;;;21.10;96272.00;;;;8351312;28;20739;-66
2022/07/25 02:42:29;;;;;;;9.85;8.85;;;;;21.10;96263.00;;;;8351736;28;20242;-70
2022/07/25 02:46:32;;;;;;;12.63;8.98;;;;;21.10;96274.00;;;;8352932;28;20243;-68
2022/07/25 02:50:36;;;;;;;11.55;8.25;;;;;21.10;96278.00;;;;8348810;28;20275;-67
2022/07/25 02:54:39;;;;;;;15.68;9.55;;;;;21.10;96274.00;;;;8353472;28;20225;-66
2022/07/25 02:58:44;;;;;;;11.38;9.77;;;;;21.00;96279.00;;;;8349383;28;20224;-66
2022/07/25 03:02:47;;;;;;;14.63;9.48;;;;;20.90;96281.00;;;;8396297;22;20323;-68
2022/07/25 03:06:51;;;;;;;11.57;9.55;;;;;20.70;96279.00;;;;8331311;28;20698;-69
2022/07/25 03:10:54;;;;;;;13.10;9.57;;;;;20.60;96282.00;;;;8327276;28;20311;-67
2022/07/25 03:15:02;;;;;;;12.10;9.52;;;;;20.40;96280.00;;;;8338700;28;20220;-67
2022/07/25 03:19:09;;;;;;;13.50;9.77;;;;;20.30;96280.00;;;;8334660;28;20708;-66
2022/07/25 03:23:12;;;;;;;12.23;9.80;;;;;20.10;96277.00;;;;8336569;28;20649;-67
2022/07/25 03:27:15;;;;;;;12.25;9.90;;;;;20.00;96264.00;;;;8333128;28;20231;-66
2022/07/25 03:31:20;;;;;;;14.40;9.70;;;;;20.00;96275.00;;;;8321646;28;20827;-67
2022/07/25 03:35:24;;;;;;;12.57;9.18;;;;;19.90;96277.00;;;;8331256;28;20237;-69
2022/07/25 03:39:28;;;;;;;14.75;11.30;;;;;19.80;96267.00;;;;8328654;28;20296;-67
2022/07/25 03:43:31;;;;;;;14.00;10.60;;;;;19.60;96267.00;;;;8331359;28;20848;-66
2022/07/25 03:47:36;;;;;;;16.13;10.75;;;;;19.40;96270.00;;;;8344392;28;20233;-65
2022/07/25 03:51:39;;;;;;;13.98;10.52;;;;;19.10;96277.00;;;;8331354;28;20228;-66
2022/07/25 03:55:43;;;;;;;16.20;10.68;;;;;18.90;96276.00;;;;8331185;28;20240;-65
2022/07/25 03:59:46;;;;;;;17.55;10.98;;;;;18.90;96271.00;;;;8336084;28;20229;-66
2022/07/25 04:03:50;;;;;;;18.33;11.40;;;;;18.80;96275.00;;;;8314104;28;20228;-65
2022/07/25 04:07:54;;;;;;;14.15;10.52;;;;;18.80;96269.00;;;;8307424;28;20231;-66
2022/07/25 04:11:57;;;;;;;13.38;10.23;;;;;18.70;96264.00;;;;8288242;28;20234;-66
2022/07/25 04:16:00;;;;;;;13.30;10.60;;;;;18.80;96262.00;;;;8294576;28;20309;-66
2022/07/25 04:20:08;;;;;;;13.90;10.60;;;;;19.00;96257.00;;;;8301626;28;20233;-65
2022/07/25 04:24:12;;;;;;;14.88;10.88;;;;;19.20;96253.00;;;;8277840;28;20396;-65
2022/07/25 04:28:15;;;;;;;13.63;11.05;;;;;19.50;96255.00;;;;8296435;28;20657;-66
2022/07/25 04:32:18;;;;;;;13.30;10.27;;;;;19.60;96249.00;;;;8298853;28;20316;-65
2022/07/25 04:36:27;;;;;;;11.82;10.05;;;;;19.70;96242.00;;;;8283167;28;20244;-67
2022/07/25 04:40:30;;;;;;;17.55;10.68;;;;;19.80;96238.00;;;;8287746;28;20245;-65
2022/07/25 04:44:33;;;;;;;17.65;10.35;;;;;19.90;96241.00;;;;8299730;28;20316;-65
2022/07/25 04:48:36;;;;;;;11.50;9.10;;;;;20.20;96242.00;;;;8293631;28;20217;-67
2022/07/25 04:52:42;;;;;;;11.23;9.52;;;;;20.50;96238.00;;;;8293763;28;20285;-67
2022/07/25 04:56:45;;;;;;;11.38;9.70;;;;;20.90;96229.00;;;;8284356;28;20240;-66
2022/07/25 05:00:48;;;;;;;10.88;8.73;;;;;21.40;96217.00;;;;8285804;28;20240;-65
2022/07/25 05:04:51;;;;;;;13.25;9.38;;;;;21.80;96220.00;;;;8282141;28;20950;-66
2022/07/25 05:08:56;;;;;;;9.73;8.65;;;;;22.30;96208.00;;;;8284454;28;20606;-65
2022/07/25 05:12:59;;;;;;;11.63;9.18;;;;;22.70;96232.00;;;;8278444;28;20327;-64
2022/07/25 05:17:03;;;;;;;11.65;9.13;;;;;23.00;96221.00;;;;8291326;28;20700;-65
2022/07/25 05:21:09;;;;;;;11.38;9.00;;;;;23.40;96220.00;;;;8289747;28;20567;-65
2022/07/25 05:25:14;;;;;;;12.77;9.55;;;;;23.60;96221.00;;;;8300290;28;20237;-65
2022/07/25 05:29:17;;;;;;;10.30;9.05;;;;;23.70;96219.00;;;;8292500;28;20245;-66
2022/07/25 05:33:20;;;;;;;14.15;8.98;;;;;24.00;96220.00;;;;8297977;28;20242;-65
2022/07/25 05:37:24;;;;;;;10.20;8.63;;;;;24.40;96219.00;;;;8289997;28;20663;-66
2022/07/25 05:41:28;;;;;;;9.68;8.38;;;;;24.70;96214.00;;;;8302298;28;20225;-68
2022/07/25 05:45:31;;;;;;;10.35;8.20;;;;;25.00;96220.00;;;;8295975;28;20241;-66
2022/07/25 05:49:35;;;;;;;9.38;7.88;;;;;25.30;96229.00;;;;8292469;28;20758;-65
2022/07/25 05:53:38;;;;;;;9.00;7.60;;;;;25.60;96221.00;;;;8296602;28;20258;-66
2022/07/25 05:57:43;;;;;;;11.48;7.93;;;;;25.80;96234.00;;;;8306565;28;20222;-66
2022/07/25 06:01:46;;;;;;;12.77;7.18;;;;;26.00;96223.00;;;;8306351;28;20228;-65
2022/07/25 06:05:49;;;;;;;11.68;8.27;;;;;26.20;96223.00;;;;8307664;28;20611;-67
2022/07/25 06:09:53;;;;;;;8.57;7.32;;;;;26.40;96222.00;;;;8299478;28;21778;-65
2022/07/25 06:13:58;;;;;;;7.78;6.97;;;;;26.40;96213.00;;;;8299974;28;20236;-66
2022/07/25 06:18:01;;;;;;;9.85;7.63;;;;;26.70;96210.00;;;;8298277;28;20787;-65
2022/07/25 06:22:05;;;;;;;8.60;7.30;;;;;26.90;96197.00;;;;8313063;28;20323;-65
2022/07/25 06:26:09;;;;;;;13.23;7.07;;;;;27.20;96189.00;;;;8300412;28;20714;-65
2022/07/25 06:30:14;;;;;;;8.68;6.32;;;;;27.50;96193.00;;;;8300338;28;20324;-66
2022/07/25 06:34:22;;;;;;;9.73;6.90;;;;;27.80;96195.00;;;;8303587;28;20240;-65
2022/07/25 06:38:30;;;;;;;9.00;6.93;;;;;28.10;96205.00;;;;8298059;28;20241;-66
2022/07/25 06:42:38;;;;;;;8.77;6.63;;;;;28.50;96199.00;;;;8300922;28;20221;-66
2022/07/25 06:46:42;;;;;;;9.48;6.72;;;;;29.10;96203.00;;;;8307141;28;20677;-69
2022/07/25 06:50:46;;;;;;;8.00;7.05;;;;;29.60;96193.00;;;;8311740;28;20297;-65
2022/07/25 06:54:49;;;;;;;8.20;6.75;;;;;29.90;96182.00;;;;8296963;28;20621;-65
2022/07/25 06:58:53;;;;;;;8.45;6.72;;;;;30.20;96174.00;;;;8296015;28;22118;-65
2022/07/25 07:03:01;;;;;;;6.97;6.35;;;;;30.50;96172.00;;;;8303453;28;20244;-65
2022/07/25 07:07:04;;;;;;;8.75;6.20;;;;;30.80;96169.00;;;;8293995;28;20232;-66
2022/07/25 07:11:07;;;;;;;8.18;6.38;;;;;31.00;96171.00;;;;8295629;28;20230;-68
2022/07/25 07:15:12;;;;;;;7.18;6.47;;;;;31.20;96174.00;;;;8296990;28;20237;-66
2022/07/25 07:19:16;;;;;;;9.32;6.40;;;;;31.40;96173.00;;;;8308546;28;20256;-66
2022/07/25 07:23:20;;;;;;;6.97;6.32;;;;;31.70;96176.00;;;;8291571;28;20225;-66
2022/07/25 07:27:23;;;;;;;7.72;6.05;;;;;31.90;96174.00;;;;8295340;28;20309;-66
2022/07/25 07:31:26;;;;;;;6.72;6.10;;;;;32.30;96167.00;;;;8295888;28;20229;-71
2022/07/25 07:35:31;;;;;;;10.02;6.80;;;;;32.70;96168.00;;;;8305697;28;20295;-66
2022/07/25 07:39:38;;;;;;;8.60;6.15;;;;;33.10;96165.00;;;;8313412;28;20225;-66
2022/07/25 07:43:41;;;;;;;6.57;5.97;;;;;33.50;96175.00;;;;8303328;28;20233;-68
2022/07/25 07:47:46;;;;;;;7.05;6.32;;;;;33.90;96167.00;;;;8309501;28;20309;-67
2022/07/25 07:51:51;;;;;;;6.63;6.03;;;;;34.20;96163.00;;;;8295408;28;20272;-65
2022/07/25 07:55:55;;;;;;;7.95;6.30;;;;;34.60;96169.00;;;;8301511;28;20327;-66
2022/07/25 07:59:58;;;;;;;6.78;6.18;;;;;34.90;96167.00;;;;8278583;28;20253;-71
2022/07/25 08:04:01;;;;;;;7.15;6.50;;;;;35.30;96172.00;;;;8280635;28;20996;-69
2022/07/25 08:08:07;;;;;;;7.25;6.50;;;;;35.60;96161.00;;;;8305077;28;20688;-67
2022/07/25 08:12:10;;;;;;;13.13;6.90;;;;;35.90;96165.00;;;;8297906;28;20610;-66
2022/07/25 08:16:13;;;;;;;7.70;6.20;;;;;36.50;96170.00;;;;8305290;28;20239;-70
2022/07/25 08:20:18;;;;;;;8.27;6.32;;;;;36.70;96163.00;;;;8292589;28;20229;-66
2022/07/25 08:24:41;;;;;;;7.20;6.50;;;;;36.60;96157.00;;;;8295386;28;20809;-69
2022/07/25 08:28:44;;;;;;;7.28;6.47;;;;;36.80;96158.00;;;;8296816;28;20231;-67
2022/07/25 08:32:50;;;;;;;7.22;6.53;;;;;37.00;96150.00;;;;8303179;28;20244;-69
2022/07/25 08:36:55;;;;;;;7.63;6.63;;;;;36.90;96147.00;;;;8296924;28;20323;-68
2022/07/25 08:41:01;;;;;;;8.60;7.13;;;;;37.00;96151.00;;;;8295636;28;20222;-69
2022/07/25 08:45:07;;;;;;;7.55;6.30;;;;;37.40;96152.00;;;;8308744;28;21969;-70
2022/07/25 08:49:11;;;;;;;7.10;6.40;;;;;37.60;96149.00;;;;8306185;28;20256;-67
2022/07/25 08:53:16;;;;;;;8.00;7.20;;;;;37.50;96142.00;;;;8300312;28;20287;-68
2022/07/25 08:57:40;;;;;;;7.63;6.93;;;;;37.70;96133.00;;;;8297050;28;20263;-66
2022/07/25 09:01:43;;;;;;;8.60;6.63;;;;;38.20;96139.00;;;;8299902;28;20252;-67
2022/07/25 09:05:46;;;;;;;8.20;7.05;;;;;38.50;96134.00;;;;8292217;28;20300;-67
2022/07/25 09:09:50;;;;;;;7.75;7.05;;;;;38.70;96130.00;;;;8301616;28;20643;-68
2022/07/25 09:14:03;;;;;;;11.80;7.43;;;;;38.50;96135.00;;;;8306602;28;20225;-67
2022/07/25 09:18:12;;;;;;;7.97;6.80;;;;;38.70;96133.00;;;;8294267;28;20325;-66
2022/07/25 09:22:18;;;;;;;8.38;6.63;;;;;38.80;96126.00;;;;8288980;28;20273;-71
2022/07/25 09:26:21;;;;;;;8.32;7.20;;;;;38.90;96111.00;;;;8303868;28;20234;-66
2022/07/25 09:30:25;;;;;;;7.85;7.05;;;;;39.30;96109.00;;;;8302938;28;20235;-67
2022/07/25 09:34:36;;;;;;;6.93;6.30;;;;;39.80;96095.00;;;;8291525;28;20324;-73
2022/07/25 09:38:40;;;;;;;7.72;6.50;;;;;40.00;96097.00;;;;8307116;28;20241;-66
2022/07/25 09:42:45;;;;;;;8.27;7.45;;;;;40.50;96095.00;;;;8309605;28;20240;-69
2022/07/25 09:46:50;;;;;;;7.65;6.43;;;;;40.80;96094.00;;;;8296859;28;20236;-66
2022/07/25 09:50:55;;;;;;;6.80;6.20;;;;;40.90;96097.00;;;;8308414;28;20879;-67
2022/07/25 09:54:59;;;;;;;7.18;6.25;;;;;41.00;96086.00;;;;8296931;28;20253;-67
2022/07/25 09:59:02;;;;;;;7.40;6.47;;;;;41.00;96080.00;;;;8309376;28;20217;-68
2022/07/25 10:03:19;;;;;;;8.50;6.65;;;;;40.90;96078.00;;;;8301656;28;20237;-67
2022/07/25 10:07:23;;;;;;;8.45;6.25;;;;;41.00;96074.00;;;;8307166;28;20233;-66
2022/07/25 10:11:33;;;;;;;7.78;6.97;;;;;40.90;96083.00;;;;8296298;28;20221;-70
2022/07/25 10:15:41;;;;;;;6.90;6.20;;;;;41.40;96074.00;;;;8300455;28;20225;-66
2022/07/25 10:19:47;;;;;;;7.50;6.35;;;;;41.60;96060.00;;;;8302115;28;20218;-70
2022/07/25 10:23:59;;;;;;;6.25;5.80;;;;;41.40;96069.00;;;;8300964;28;20279;-70
2022/07/25 10:28:08;;;;;;;7.32;6.63;;;;;41.60;96057.00;;;;8303998;28;20605;-68
2022/07/25 10:32:12;;;;;;;7.03;6.32;;;;;41.90;96051.00;;;;8299750;28;20230;-70
2022/07/25 10:36:18;;;;;;;6.75;6.25;;;;;42.30;96049.00;;;;8296163;28;20316;-68
2022/07/25 10:40:29;;;;;;;7.95;6.47;;;;;42.10;96048.00;;;;8307006;28;20229;-68
2022/07/25 10:44:41;;;;;;;8.10;6.78;;;;;42.20;96049.00;;;;8301575;28;20232;-68
2022/07/25 10:48:45;;;;;;;8.93;7.13;;;;;42.30;96043.00;;;;8298316;28;20234;-68
2022/07/25 10:52:58;;;;;;;9.55;6.70;;;;;42.30;96039.00;;;;8306724;28;20615;-71
2022/07/25 10:57:03;;;;;;;10.23;7.65;;;;;42.70;96030.00;;;;8293350;28;20230;-69
2022/07/25 11:01:07;;;;;;;7.43;6.80;;;;;42.60;96023.00;;;;8300738;28;20226;-75
2022/07/25 11:05:10;;;;;;;7.22;6.25;;;;;42.40;96020.00;;;;8293786;28;20214;-70
2022/07/25 11:09:17;;;;;;;7.32;6.72;;;;;42.20;96013.00;;;;8294740;28;20224;-70
2022/07/25 11:13:28;;;;;;;8.20;7.40;;;;;42.00;96012.00;;;;8288618;28;20527;-68
2022/07/25 11:17:31;;;;;;;10.90;7.68;;;;;42.10;96008.00;;;;8297796;28;20348;-73
2022/07/25 11:21:44;;;;;;;7.35;6.75;;;;;42.40;96002.00;;;;8307895;28;20229;-74
2022/07/25 11:25:50;;;;;;;7.75;7.05;;;;;42.90;95995.00;;;;8292592;28;20236;-71
2022/07/25 11:29:54;;;;;;;7.85;7.05;;;;;43.00;95990.00;;;;8290072;28;20224;-75
2022/07/25 11:33:57;;;;;;;10.23;7.05;;;;;42.90;95991.00;;;;8297518;28;20241;-73
2022/07/25 11:38:01;;;;;;;8.15;7.22;;;;;43.30;95979.00;;;;8305449;28;20232;-71
2022/07/25 11:42:08;;;;;;;8.07;7.00;;;;;43.50;95988.00;;;;8311617;28;20311;-70
2022/07/25 11:46:11;;;;;;;7.15;6.18;;;;;43.00;95988.00;;;;8300670;28;20233;-67
2022/07/25 11:50:15;;;;;;;10.25;6.03;;;;;43.40;95975.00;;;;8297824;28;20281;-70
2022/07/25 11:54:19;;;;;;;6.80;6.15;;;;;43.10;95967.00;;;;8293317;28;20221;-65
2022/07/25 11:58:24;;;;;;;10.45;6.50;;;;;42.90;95959.00;;;;8292099;28;20240;-65
2022/07/25 12:02:30;;;;;;;7.95;6.63;;;;;43.00;95959.00;;;;8296358;28;20305;-65
2022/07/25 12:06:33;;;;;;;7.40;6.68;;;;;43.50;95954.00;;;;8300675;28;20229;-65
2022/07/25 12:10:42;;;;;;;8.30;6.70;;;;;43.40;95934.00;;;;8296699;28;20304;-68
2022/07/25 12:14:46;;;;;;;7.05;6.45;;;;;43.50;95937.00;;;;8293705;28;20248;-68
2022/07/25 12:18:50;;;;;;;7.20;6.50;;;;;43.10;95933.00;;;;8286075;28;20248;-67
2022/07/25 12:22:55;;;;;;;9.45;6.88;;;;;43.00;95934.00;;;;8284210;28;20229;-67
2022/07/25 12:26:59;;;;;;;7.20;6.63;;;;;43.50;95931.00;;;;8296849;28;20765;-70
2022/07/25 12:31:04;;;;;;;6.53;5.97;;;;;43.50;95912.00;;;;8293161;28;20304;-66
2022/07/25 12:35:09;;;;;;;8.35;7.30;;;;;43.00;95916.00;;;;8292063;28;20228;-69
2022/07/25 12:39:20;;;;;;;6.95;6.32;;;;;42.50;95905.00;;;;8292559;28;20229;-68
2022/07/25 12:43:23;;;;;;;6.82;6.22;;;;;42.10;95912.00;;;;8296389;28;20765;-68
2022/07/25 12:47:29;;;;;;;6.63;6.03;;;;;41.80;95903.00;;;;8298135;28;20221;-71
2022/07/25 12:51:32;;;;;;;7.07;6.45;;;;;40.80;95902.00;;;;8301435;28;20560;-68
2022/07/25 12:55:35;;;;;;;7.40;6.68;;;;;40.00;95895.00;;;;8267721;28;20228;-66
2022/07/25 12:59:39;;;;;;;7.63;6.93;;;;;39.50;95909.00;;;;8281540;28;20725;-68
2022/07/25 13:03:43;;;;;;;7.40;6.68;;;;;39.20;95894.00;;;;8271260;28;20317;-68
2022/07/25 13:07:47;;;;;;;8.00;7.20;;;;;39.00;95892.00;;;;8269093;28;20315;-68
2022/07/25 13:11:51;;;;;;;7.53;6.70;;;;;39.10;95883.00;;;;8262918;28;20232;-67
2022/07/25 13:15:54;;;;;;;7.00;6.40;;;;;39.20;95886.00;;;;8265762;28;20771;-69
2022/07/25 13:19:58;;;;;;;7.38;6.68;;;;;39.10;95879.00;;;;8267246;28;20218;-67
2022/07/25 13:24:02;;;;;;;7.93;7.00;;;;;39.10;95875.00;;;;8282236;28;20671;-67
2022/07/25 13:28:05;;;;;;;8.80;6.57;;;;;39.90;95860.00;;;;8274416;28;20245;-66
2022/07/25 13:32:13;;;;;;;7.78;6.97;;;;;40.60;95862.00;;;;8274077;28;20620;-73
2022/07/25 13:36:20;;;;;;;7.60;6.18;;;;;41.00;95858.00;;;;8267954;28;20682;-66
2022/07/25 13:40:23;;;;;;;9.98;6.25;;;;;41.60;95854.00;;;;8262836;28;20284;-70
2022/07/25 13:44:26;;;;;;;7.93;6.95;;;;;41.50;95857.00;;;;8266148;28;20256;-66
2022/07/25 13:48:29;;;;;;;6.93;6.30;;;;;42.30;95844.00;;;;8266501;28;20236;-68
2022/07/25 13:52:35;;;;;;;7.00;6.18;;;;;41.70;95838.00;;;;8266790;28;20236;-67
2022/07/25 13:56:39;;;;;;;6.68;6.07;;;;;42.40;95823.00;;;;8261264;28;20224;-67
2022/07/25 14:00:43;;;;;;;7.03;5.90;;;;;43.30;95823.00;;;;8276050;28;20618;-67
2022/07/25 14:04:46;;;;;;;6.57;5.97;;;;;43.50;95830.00;;;;8279137;28;20230;-68
2022/07/25 14:08:51;;;;;;;6.57;5.85;;;;;43.60;95812.00;;;;8280098;28;20230;-70
2022/07/25 14:12:57;;;;;;;6.03;5.53;;;;;43.50;95821.00;;;;8279830;28;20663;-69
2022/07/25 14:17:00;;;;;;;6.50;6.00;;;;;43.70;95820.00;;;;8266332;28;20255;-69
2022/07/25 14:21:04;;;;;;;6.90;6.20;;;;;43.50;95815.00;;;;8278282;28;20230;-70
2022/07/25 14:25:09;;;;;;;6.28;5.78;;;;;43.40;95811.00;;;;8262315;28;20257;-68
2022/07/25 14:29:13;;;;;;;6.78;6.18;;;;;42.90;95803.00;;;;8264265;28;20256;-68
2022/07/25 14:33:16;;;;;;;6.03;5.53;;;;;42.30;95804.00;;;;8259123;28;20236;-68
2022/07/25 14:37:22;;;;;;;6.45;5.80;;;;;42.50;95791.00;;;;8279736;28;20318;-67
2022/07/25 14:41:27;;;;;;;6.68;5.70;;;;;42.90;95785.00;;;;8268247;28;20265;-67
2022/07/25 14:45:30;;;;;;;5.75;5.20;;;;;43.10;95783.00;;;;8268950;28;20240;-69
2022/07/25 14:49:33;;;;;;;5.70;5.30;;;;;43.20;95779.00;;;;8270196;28;20230;-67
2022/07/25 14:53:37;;;;;;;9.25;5.90;;;;;43.00;95790.00;;;;8271056;28;20236;-68
2022/07/25 14:57:44;;;;;;;6.03;5.53;;;;;43.00;95784.00;;;;8281721;28;20248;-67
2022/07/25 15:01:47;;;;;;;5.55;5.15;;;;;43.10;95777.00;;;;8273505;28;20248;-69
2022/07/25 15:05:50;;;;;;;6.05;5.45;;;;;43.20;95777.00;;;;8278848;28;20251;-66
2022/07/25 15:09:53;;;;;;;7.45;5.38;;;;;42.80;95772.00;;;;8272140;28;20281;-69
2022/07/25 15:13:58;;;;;;;7.35;5.80;;;;;43.30;95762.00;;;;8266641;28;20218;-68
2022/07/25 15:18:01;;;;;;;6.72;5.38;;;;;43.20;95765.00;;;;8281366;28;20232;-69
2022/07/25 15:22:05;;;;;;;5.53;4.57;;;;;43.10;95757.00;;;;8269024;28;20583;-73
2022/07/25 15:26:15;;;;;;;3.50;3.30;;;;;43.00;95756.00;;;;8271572;28;20388;-76
2022/07/25 15:30:19;;;;;;;3.63;3.33;;;;;42.60;95749.00;;;;8264150;28;20706;-74
2022/07/25 15:34:30;;;;;;;3.67;3.38;;;;;42.60;95745.00;;;;8280899;28;20226;-70
2022/07/25 15:38:33;;;;;;;3.78;3.50;;;;;42.50;95744.00;;;;8268346;28;20697;-71
2022/07/25 15:42:38;;;;;;;3.15;2.90;;;;;42.60;95744.00;;;;8272543;28;20309;-71
2022/07/25 15:46:44;;;;;;;3.85;3.20;;;;;42.60;95744.00;;;;8265346;28;20222;-71
2022/07/25 15:50:50;;;;;;;3.88;3.33;;;;;42.20;95728.00;;;;8265822;28;20252;-76
2022/07/25 15:54:53;;;;;;;6.82;3.72;;;;;42.20;95722.00;;;;8273106;28;20754;-70
2022/07/25 15:58:56;;;;;;;3.78;3.50;;;;;41.70;95730.00;;;;8274159;28;20230;-69
2022/07/25 16:03:01;;;;;;;3.70;3.40;;;;;41.30;95727.00;;;;8272503;28;20222;-69
2022/07/25 16:07:04;;;;;;;3.60;3.30;;;;;40.70;95731.00;;;;8259766;28;20218;-70
2022/07/25 16:11:08;;;;;;;3.58;3.28;;;;;40.00;95720.00;;;;8278754;28;20234;-69
2022/07/25 16:15:11;;;;;;;3.70;3.47;;;;;39.40;95728.00;;;;8268524;28;20721;-68
2022/07/25 16:19:16;;;;;;;3.92;3.63;;;;;38.80;95711.00;;;;8281688;28;20240;-68
2022/07/25 16:23:21;;;;;;;6.05;3.47;;;;;38.40;95701.00;;;;8268009;28;20317;-69
2022/07/25 16:27:25;;;;;;;5.35;3.40;;;;;38.00;95710.00;;;;8270598;28;20337;-68
2022/07/25 16:31:28;;;;;;;3.92;3.53;;;;;37.80;95721.00;;;;8267765;28;20221;-68
2022/07/25 16:35:33;;;;;;;6.55;3.65;;;;;37.60;95714.00;;;;8275574;28;20759;-68
2022/07/25 16:39:36;;;;;;;4.43;3.55;;;;;37.30;95728.00;;;;8275414;28;20225;-69
2022/07/25 16:43:39;;;;;;;7.55;3.95;;;;;37.20;95720.00;;;;8277193;28;20671;-68
2022/07/25 16:47:44;;;;;;;3.42;3.22;;;;;36.90;95724.00;;;;8279836;28;20232;-69
2022/07/25 16:51:48;;;;;;;4.82;3.55;;;;;36.60;95717.00;;;;8280947;28;20226;-68
2022/07/25 16:55:51;;;;;;;4.63;3.50;;;;;36.40;95723.00;;;;8278877;28;20230;-68
2022/07/25 16:59:55;;;;;;;4.30;3.65;;;;;36.10;95728.00;;;;8273776;28;20234;-68
2022/07/25 17:03:58;;;;;;;9.95;3.55;;;;;35.80;95719.00;;;;8256222;28;20818;-68
2022/07/25 17:08:03;;;;;;;13.45;3.97;;;;;35.60;95739.00;;;;8270480;28;20236;-68
2022/07/25 17:12:07;;;;;;;8.18;3.78;;;;;35.30;95751.00;;;;8265115;28;20595;-69
2022/07/25 17:16:11;;;;;;;4.80;3.97;;;;;34.90;95754.00;;;;8276335;28;20627;-66
2022/07/25 17:20:14;;;;;;;6.20;4.03;;;;;34.40;95756.00;;;;8274212;28;20238;-66
2022/07/25 17:24:19;;;;;;;5.78;3.90;;;;;34.00;95812.00;;;;8274620;28;20245;-66
2022/07/25 17:28:23;;;;;;;12.90;6.10;;;;;33.40;95858.00;;;;8275751;28;20698;-66
2022/07/25 17:32:26;;;;;;;9.73;5.95;;;;;32.50;95883.00;;;;8274046;28;20247;-66
2022/07/25 17:36:32;;;;;;;10.30;6.50;;;;;31.30;95896.00;;;;8272774;28;20232;-68
2022/07/25 17:40:36;;;;;;;12.77;7.75;;;;;29.70;95916.00;;;;8276044;28;20321;-68
2022/07/25 17:44:40;;;;;;;10.30;6.70;;;;;28.40;95884.00;;;;8270079;28;20218;-69
2022/07/25 17:48:44;;;;;;;10.13;7.25;;;;;27.50;95891.00;;;;8277367;28;20707;-68
2022/07/25 17:52:47;;;;;;;11.18;7.82;;;;;26.40;95862.00;;;;8280628;28;20233;-73
2022/07/25 17:56:52;;;;;;;12.45;7.80;;;;;25.70;95869.00;;;;8279366;28;20330;-75
2022/07/25 18:00:55;;;;;;;16.67;9.25;;;;;25.40;95850.00;;;;8285784;28;20236;-72
2022/07/25 18:05:03;;;;;;;13.23;8.70;;;;;25.30;95827.00;;;;8287724;28;20234;-71
2022/07/25 18:09:07;;;;;;;12.85;8.63;;;;;25.30;95832.00;;;;8280813;28;20228;-72
2022/07/25 18:13:13;;;;;;;13.07;8.95;;;;;25.40;95830.00;;;;8278709;28;20225;-73
2022/07/25 18:17:16;;;;;;;17.02;9.40;;;;;25.60;95822.00;;;;8273812;28;20341;-68
2022/07/25 18:21:19;;;;;;;13.13;8.85;;;;;25.70;95832.00;;;;8275825;28;20593;-70
2022/07/25 18:25:23;;;;;;;13.32;8.68;;;;;25.80;95840.00;;;;8264751;28;20638;-69
2022/07/25 18:29:27;;;;;;;14.85;8.52;;;;;25.90;95814.00;;;;8268362;28;20243;-69
2022/07/25 18:33:31;;;;;;;14.68;8.75;;;;;26.10;95813.00;;;;8274993;28;20671;-67
2022/07/25 18:37:35;;;;;;;15.18;8.77;;;;;26.20;95815.00;;;;8267877;28;20325;-69
2022/07/25 18:41:39;;;;;;;13.55;9.13;;;;;26.30;95830.00;;;;8276795;28;20234;-67
2022/07/25 18:45:45;;;;;;;13.07;8.55;;;;;26.30;95811.00;;;;8274314;28;20333;-68
2022/07/25 18:49:48;;;;;;;12.35;8.82;;;;;26.30;95823.00;;;;8275311;28;20306;-67
2022/07/25 18:53:52;;;;;;;12.05;8.85;;;;;26.20;95817.00;;;;8270835;28;20226;-69
2022/07/25 18:57:55;;;;;;;12.70;9.05;;;;;26.30;95810.00;;;;8274316;28;20591;-66
2022/07/25 19:02:00;;;;;;;15.95;9.07;;;;;26.30;95812.00;;;;8278496;28;20230;-67
2022/07/25 19:06:04;;;;;;;14.40;8.13;;;;;26.30;95818.00;;;;8278813;28;20245;-66
2022/07/25 19:10:09;;;;;;;11.13;8.45;;;;;26.30;95822.00;;;;8270263;28;20232;-67
2022/07/25 19:14:12;;;;;;;12.25;8.80;;;;;26.20;95824.00;;;;8276506;28;20261;-69
2022/07/25 19:18:17;;;;;;;12.23;8.88;;;;;26.10;95827.00;;;;8271989;28;20228;-67
2022/07/25 19:22:20;;;;;;;12.70;8.93;;;;;26.00;95836.00;;;;8279175;28;20236;-66
2022/07/25 19:26:23;;;;;;;12.95;8.80;;;;;25.90;95840.00;;;;8280615;28;20226;-66
2022/07/25 19:30:28;;;;;;;11.43;8.95;;;;;25.70;95837.00;;;;8279354;28;20230;-68
2022/07/25 19:34:33;;;;;;;10.65;8.25;;;;;25.50;95844.00;;;;8278842;28;20242;-67
2022/07/25 19:38:36;;;;;;;13.35;9.00;;;;;25.30;95846.00;;;;8275147;28;20308;-67
2022/07/25 19:42:41;;;;;;;13.68;9.27;;;;;25.20;95839.00;;;;8282249;28;20226;-67
2022/07/25 19:46:45;;;;;;;14.30;9.80;;;;;25.20;95835.00;;;;8269168;28;20218;-66
2022/07/25 19:50:50;;;;;;;12.30;8.75;;;;;25.20;95834.00;;;;8271643;28;20237;-66
2022/07/25 19:54:53;;;;;;;11.23;9.23;;;;;25.10;95838.00;;;;8268300;28;20229;-66
2022/07/25 19:58:57;;;;;;;12.38;8.77;;;;;25.10;95832.00;;;;8272562;28;20248;-66
2022/07/25 20:03:00;;;;;;;13.85;9.13;;;;;24.90;95830.00;;;;8271852;28;20240;-66
2022/07/25 20:07:05;;;;;;;18.63;10.23;;;;;24.70;95823.00;;;;8271287;28;20702;-66
2022/07/25 20:11:09;;;;;;;14.82;9.80;;;;;24.60;95823.00;;;;8254527;28;20280;-65
2022/07/25 20:15:12;;;;;;;14.60;9.57;;;;;24.60;95831.00;;;;8274894;28;20320;-65
2022/07/25 20:19:16;;;;;;;10.68;9.07;;;;;24.60;95839.00;;;;8258704;28;20312;-64